Time;durP1;ratioP1;P1;durP2;ratioP2;P2;SDS_P1;SDS_P2;PMS_P1;PMS_P2;Temp;Humidity;BMP_temperature;BMP_pressure;BME280_temperature;BME280_humidity;BME280_pressure;Samples;Min_cycle;Max_cycle;Signal;HPM_P1;HPM_P2
2021/01/27 00:00:23;;;;;;;5.97;2.70;;;5.60;68.60;;;;;;2566344;53;21017;-66
2021/01/27 00:02:49;;;;;;;7.80;3.17;;;5.50;68.40;;;;;;2587644;52;20963;-66
2021/01/27 00:05:18;;;;;;;6.00;3.15;;;5.50;68.30;;;;;;2619971;52;21072;-66
2021/01/27 00:07:44;;;;;;;5.50;2.55;;;5.50;68.20;;;;;;2369333;53;20991;-67
2021/01/27 00:10:19;;;;;;;8.52;3.30;;;5.50;68.20;;;;;;2369240;54;20950;-66
2021/01/27 00:12:46;;;;;;;6.03;3.22;;;5.40;67.90;;;;;;2596908;52;21096;-66
2021/01/27 00:15:20;;;;;;;7.65;3.10;;;5.40;68.00;;;;;;2610204;52;20993;-67
2021/01/27 00:17:47;;;;;;;9.13;4.20;;;5.40;68.00;;;;;;2370545;54;21085;-66
2021/01/27 00:20:14;;;;;;;15.80;6.35;;;5.30;68.00;;;;;;2614498;52;20971;-66
2021/01/27 00:22:41;;;;;;;17.42;7.75;;;5.30;68.10;;;;;;2594568;52;21045;-66
2021/01/27 00:25:11;;;;;;;18.35;7.80;;;5.30;68.30;;;;;;2595118;52;20922;-66
2021/01/27 00:27:37;;;;;;;11.48;5.85;;;5.20;68.30;;;;;;2574502;52;20976;-66
2021/01/27 00:30:14;;;;;;;9.40;4.45;;;5.20;68.30;;;;;;2587205;52;21062;-66
2021/01/27 00:32:41;;;;;;;8.55;3.90;;;5.20;68.30;;;;;;2369590;54;21022;-66
2021/01/27 00:35:08;;;;;;;8.65;3.90;;;5.20;68.40;;;;;;2596299;52;20952;-66
2021/01/27 00:37:35;;;;;;;9.65;3.45;;;5.20;68.50;;;;;;2354885;53;20959;-66
2021/01/27 00:40:01;;;;;;;24.40;7.12;;;5.20;68.60;;;;;;2593298;52;21693;-66
2021/01/27 00:42:28;;;;;;;8.95;4.75;;;5.10;68.60;;;;;;2352269;53;20963;-66
2021/01/27 00:44:54;;;;;;;9.77;4.18;;;5.10;68.80;;;;;;2581258;52;21446;-66
2021/01/27 00:47:25;;;;;;;7.30;3.42;;;5.20;69.10;;;;;;2572535;53;21006;-66
2021/01/27 00:49:51;;;;;;;7.10;3.40;;;5.30;69.30;;;;;;2600604;52;20942;-67
2021/01/27 00:52:18;;;;;;;7.40;3.45;;;5.20;69.20;;;;;;2593232;52;21004;-66
2021/01/27 00:54:45;;;;;;;9.68;2.85;;;5.20;69.20;;;;;;2599077;52;21498;-66
2021/01/27 00:57:13;;;;;;;9.00;3.75;;;5.20;69.10;;;;;;2367856;53;21105;-66
2021/01/27 00:59:40;;;;;;;12.25;3.20;;;5.20;69.20;;;;;;2369774;53;20993;-66
2021/01/27 01:02:06;;;;;;;7.47;2.90;;;5.20;69.20;;;;;;2351399;54;20951;-66
2021/01/27 01:04:33;;;;;;;6.43;2.80;;;5.20;69.30;;;;;;2361886;53;20979;-66
2021/01/27 01:06:59;;;;;;;5.32;2.40;;;5.20;69.40;;;;;;2593669;52;20974;-66
2021/01/27 01:09:25;;;;;;;3.90;2.15;;;5.20;69.40;;;;;;2349180;54;20935;-66
2021/01/27 01:11:52;;;;;;;4.85;2.37;;;5.20;69.40;;;;;;2360232;53;21095;-66
2021/01/27 01:14:18;;;;;;;7.18;3.30;;;5.20;69.40;;;;;;2354713;53;21043;-66
2021/01/27 01:16:47;;;;;;;6.75;2.30;;;5.30;69.40;;;;;;2603326;52;20956;-66
2021/01/27 01:19:14;;;;;;;4.10;2.05;;;5.30;69.40;;;;;;2361295;53;20938;-66
2021/01/27 01:21:45;;;;;;;4.50;1.87;;;5.30;69.40;;;;;;2353532;54;20957;-66
2021/01/27 01:24:11;;;;;;;4.40;2.17;;;5.30;69.40;;;;;;2601988;52;20965;-66
2021/01/27 01:26:38;;;;;;;6.10;1.92;;;5.30;69.40;;;;;;2594090;52;21036;-66
2021/01/27 01:29:04;;;;;;;5.65;2.15;;;5.30;69.30;;;;;;2592670;52;21651;-66
2021/01/27 01:31:30;;;;;;;6.25;2.60;;;5.30;69.20;;;;;;2351587;53;21505;-66
2021/01/27 01:33:57;;;;;;;7.40;2.42;;;5.30;69.10;;;;;;2585697;52;21007;-66
2021/01/27 01:36:23;;;;;;;4.35;2.10;;;5.30;69.00;;;;;;2609348;52;21000;-66
2021/01/27 01:38:53;;;;;;;3.95;1.80;;;5.10;68.70;;;;;;2598583;52;20910;-66
2021/01/27 01:41:20;;;;;;;7.20;2.00;;;5.30;68.80;;;;;;2621519;52;20961;-66
2021/01/27 01:43:47;;;;;;;4.07;2.20;;;5.30;68.90;;;;;;2618040;52;20994;-66
2021/01/27 01:46:14;;;;;;;6.00;2.50;;;5.20;68.90;;;;;;2588070;52;20937;-66
2021/01/27 01:48:56;;;;;;;4.07;2.00;;;5.20;68.90;;;;;;2369562;53;21010;-66
2021/01/27 01:51:32;;;;;;;4.82;1.90;;;5.20;69.00;;;;;;2610669;52;20975;-66
2021/01/27 01:54:43;;;;;;;4.28;1.62;;;5.20;68.90;;;;;;2349636;54;21076;-66
2021/01/27 01:57:22;;;;;;;6.32;2.00;;;5.20;68.90;;;;;;2349910;54;21702;-66
2021/01/27 01:59:58;;;;;;;4.50;1.98;;;5.20;68.90;;;;;;2373509;53;20914;-66
2021/01/27 02:02:26;;;;;;;6.80;2.47;;;5.20;68.80;;;;;;2621242;52;20962;-66
2021/01/27 02:04:58;;;;;;;13.18;8.38;;;5.20;68.90;;;;;;2349396;54;21013;-66
2021/01/27 02:07:25;;;;;;;15.18;10.18;;;5.20;68.90;;;;;;2591940;52;20923;-66
2021/01/27 02:09:54;;;;;;;9.48;6.43;;;5.20;68.80;;;;;;2360114;54;21016;-66
2021/01/27 02:12:36;;;;;;;6.65;3.92;;;5.20;68.80;;;;;;2573754;53;20979;-66
2021/01/27 02:21:17;;;;;;;6.00;2.78;;;5.20;68.50;;;;;;2368409;54;20986;-66
2021/01/27 02:30:56;;;;;;;9.10;4.12;;;5.10;67.70;;;;;;2358254;54;21063;-66
2021/01/27 02:33:53;;;;;;;5.25;2.70;;;5.10;67.50;;;;;;2351672;54;20982;-66
2021/01/27 02:36:33;;;;;;;7.72;2.92;;;4.90;68.10;;;;;;2603940;52;20963;-66
2021/01/27 02:40:31;;;;;;;5.22;2.45;;;4.90;68.20;;;;;;2354763;53;21511;-66
2021/01/27 02:43:49;;;;;;;6.95;2.22;;;4.80;67.70;;;;;;2578280;53;21788;-66
2021/01/27 02:46:26;;;;;;;3.95;1.87;;;4.80;68.30;;;;;;2367210;53;20938;-66
2021/01/27 02:49:12;;;;;;;6.12;2.70;;;4.80;68.40;;;;;;2360123;54;20999;-66
2021/01/27 02:52:00;;;;;;;5.12;2.47;;;4.80;68.30;;;;;;2611418;52;20971;-66
2021/01/27 02:54:48;;;;;;;5.20;2.45;;;4.80;68.50;;;;;;2360710;54;20929;-66
2021/01/27 02:57:30;;;;;;;8.77;3.22;;;4.80;68.50;;;;;;2623554;52;20950;-66
2021/01/27 03:03:41;;;;;;;8.17;3.90;;;4.70;68.70;;;;;;2606501;52;20962;-66
2021/01/27 03:06:10;;;;;;;5.68;2.78;;;4.70;67.90;;;;;;2594444;52;20965;-66
2021/01/27 03:08:48;;;;;;;4.18;2.05;;;4.70;68.70;;;;;;2556929;53;20972;-66
2021/01/27 03:11:23;;;;;;;4.65;2.12;;;4.70;68.80;;;;;;2344821;54;20916;-66
2021/01/27 03:13:52;;;;;;;5.68;2.40;;;4.70;69.00;;;;;;2329873;54;21043;-66
2021/01/27 03:16:32;;;;;;;6.57;2.20;;;4.70;69.20;;;;;;2343168;54;20977;-66
2021/01/27 03:19:33;;;;;;;5.90;1.62;;;4.70;69.20;;;;;;2574768;52;21037;-66
2021/01/27 03:22:02;;;;;;;3.22;1.60;;;4.70;69.40;;;;;;2342675;53;20950;-66
2021/01/27 03:24:34;;;;;;;;;;;4.80;69.60;;;;;;2354846;53;21015;-66
2021/01/27 03:27:08;;;;;;;3.92;1.30;;;4.80;68.70;;;;;;2601144;52;20071;-66
2021/01/27 03:29:52;;;;;;;3.90;1.50;;;4.80;69.60;;;;;;2600716;52;20937;-66
2021/01/27 03:32:43;;;;;;;4.57;1.65;;;4.80;69.50;;;;;;2589351;52;20943;-66
2021/01/27 03:35:21;;;;;;;3.55;1.50;;;4.80;69.80;;;;;;2609303;52;21613;-66
2021/01/27 03:38:01;;;;;;;3.78;1.33;;;4.90;69.90;;;;;;2605482;52;20998;-66
2021/01/27 03:40:27;;;;;;;2.85;1.25;;;4.90;69.80;;;;;;2622950;52;20971;-65
2021/01/27 03:43:14;;;;;;;3.10;1.40;;;4.90;69.80;;;;;;2620008;52;20977;-65
2021/01/27 03:45:43;;;;;;;3.55;1.60;;;4.90;69.80;;;;;;2351028;53;21001;-65
2021/01/27 03:48:27;;;;;;;3.60;1.62;;;4.90;69.80;;;;;;2352630;53;20993;-65
2021/01/27 03:50:56;;;;;;;2.65;1.33;;;5.00;69.80;;;;;;2358020;54;20955;-65
2021/01/27 03:53:22;;;;;;;3.87;1.48;;;5.00;69.90;;;;;;2608237;52;20979;-66
2021/01/27 03:55:54;;;;;;;2.78;1.20;;;5.00;70.00;;;;;;2369858;53;20980;-66
2021/01/27 03:58:36;;;;;;;3.33;1.50;;;5.00;69.90;;;;;;2566385;53;20954;-66
2021/01/27 04:01:10;;;;;;;4.72;2.05;;;5.00;69.70;;;;;;2589361;52;21090;-66
2021/01/27 04:03:36;;;;;;;5.82;2.80;;;5.10;69.80;;;;;;2371786;53;20965;-66
2021/01/27 04:06:03;;;;;;;11.82;7.55;;;5.10;70.00;;;;;;2623748;52;20986;-66
2021/01/27 04:08:29;;;;;;;16.60;10.95;;;5.10;70.00;;;;;;2623495;52;20898;-66
2021/01/27 04:10:59;;;;;;;14.00;9.05;;;5.10;70.00;;;;;;2348608;54;21037;-66
2021/01/27 04:13:29;;;;;;;13.73;9.25;;;5.00;70.00;;;;;;2368721;53;20951;-66
2021/01/27 04:15:56;;;;;;;9.82;5.60;;;5.20;70.10;;;;;;2570594;52;20997;-66
2021/01/27 04:18:22;;;;;;;8.57;5.15;;;5.20;70.10;;;;;;2367205;54;20898;-66
2021/01/27 04:20:48;;;;;;;10.80;5.43;;;5.20;70.10;;;;;;2367980;54;20967;-64
2021/01/27 04:23:15;;;;;;;9.63;4.62;;;5.20;70.00;;;;;;2577082;52;20995;-66
2021/01/27 04:25:45;;;;;;;6.62;3.50;;;5.20;69.80;;;;;;2353813;53;21031;-66
2021/01/27 04:28:12;;;;;;;7.05;3.70;;;5.30;69.90;;;;;;2354063;53;21518;-66
2021/01/27 04:30:38;;;;;;;5.30;3.08;;;5.30;69.80;;;;;;2592396;52;20923;-66
2021/01/27 04:33:08;;;;;;;5.32;2.50;;;5.30;69.80;;;;;;2359700;53;21019;-66
2021/01/27 04:35:35;;;;;;;4.80;2.22;;;5.30;69.80;;;;;;2577455;52;21070;-66
2021/01/27 04:38:04;;;;;;;6.20;2.50;;;5.30;69.70;;;;;;2592732;52;21850;-66
2021/01/27 04:40:42;;;;;;;4.78;1.80;;;5.30;69.80;;;;;;2352851;53;20983;-66
2021/01/27 04:43:20;;;;;;;3.30;1.42;;;5.30;69.70;;;;;;2368386;53;21336;-66
2021/01/27 04:45:49;;;;;;;3.42;1.45;;;5.30;69.80;;;;;;2620105;52;20981;-66
2021/01/27 04:48:26;;;;;;;2.78;1.40;;;5.30;70.00;;;;;;2584653;52;21501;-66
2021/01/27 04:51:03;;;;;;;5.25;1.80;;;5.40;70.00;;;;;;2585053;52;21681;-66
2021/01/27 04:53:55;;;;;;;3.28;1.65;;;5.40;69.90;;;;;;2339736;53;20925;-66
2021/01/27 04:57:06;;;;;;;5.97;2.22;;;5.40;69.60;;;;;;2584223;52;20950;-66
2021/01/27 05:00:31;;;;;;;5.20;2.10;;;5.40;69.40;;;;;;2611022;52;20954;-66
2021/01/27 05:05:57;;;;;;;3.78;1.77;;;5.40;69.40;;;;;;2362085;53;21439;-66
2021/01/27 05:08:32;;;;;;;3.90;1.80;;;5.40;68.40;;;;;;2613512;52;21019;-66
2021/01/27 05:11:02;;;;;;;3.95;1.90;;;5.40;69.10;;;;;;2593817;52;21550;-66
2021/01/27 05:13:33;;;;;;;4.68;2.33;;;5.40;69.10;;;;;;2590501;52;20902;-66
2021/01/27 05:16:06;;;;;;;4.80;2.28;;;5.40;69.00;;;;;;2592213;52;20955;-66
2021/01/27 05:18:35;;;;;;;3.87;1.75;;;5.40;69.00;;;;;;2614665;52;20922;-66
2021/01/27 05:21:01;;;;;;;4.85;1.92;;;5.30;69.00;;;;;;2346915;53;20993;-66
2021/01/27 05:23:28;;;;;;;5.43;2.45;;;5.30;69.00;;;;;;2594317;52;20919;-66
2021/01/27 05:26:07;;;;;;;7.32;2.75;;;5.30;69.00;;;;;;2359475;54;21002;-66
2021/01/27 05:28:38;;;;;;;4.60;2.00;;;5.30;68.90;;;;;;2593375;52;21063;-66
2021/01/27 05:31:04;;;;;;;4.65;2.28;;;5.30;69.00;;;;;;2600155;52;20948;-65
2021/01/27 05:33:49;;;;;;;5.55;2.55;;;5.20;68.90;;;;;;2588471;52;20982;-66
2021/01/27 05:36:36;;;;;;;7.05;2.30;;;5.20;68.70;;;;;;2594187;52;20949;-66
2021/01/27 05:39:14;;;;;;;5.93;2.50;;;5.20;68.70;;;;;;2561502;53;20948;-66
2021/01/27 05:41:43;;;;;;;5.18;2.40;;;5.20;69.60;;;;;;2584072;52;21885;-66
2021/01/27 05:44:13;;;;;;;6.85;2.90;;;5.20;69.90;;;;;;2368145;53;21002;-66
2021/01/27 05:46:40;;;;;;;6.78;2.78;;;5.20;69.20;;;;;;2368755;53;20926;-65
2021/01/27 05:49:28;;;;;;;4.60;2.42;;;5.20;69.40;;;;;;2598116;52;20982;-64
2021/01/27 05:52:12;;;;;;;7.95;3.60;;;5.20;68.90;;;;;;2359292;54;20976;-65
2021/01/27 05:54:39;;;;;;;5.03;2.40;;;5.20;69.10;;;;;;2561837;53;20960;-65
2021/01/27 05:57:39;;;;;;;5.45;2.70;;;5.20;69.10;;;;;;2592682;52;20951;-65
2021/01/27 06:00:21;;;;;;;5.97;2.95;;;5.20;68.60;;;;;;2592953;52;21067;-66
2021/01/27 06:02:47;;;;;;;4.45;2.50;;;5.20;68.90;;;;;;2620575;52;20989;-66
2021/01/27 06:05:15;;;;;;;5.12;2.50;;;5.20;68.90;;;;;;2591381;52;20993;-66
2021/01/27 06:07:41;;;;;;;7.05;2.80;;;5.10;68.70;;;;;;2611738;52;20930;-66
2021/01/27 06:10:30;;;;;;;5.35;2.47;;;5.10;68.80;;;;;;2621845;52;20970;-66
2021/01/27 06:13:18;;;;;;;6.20;3.03;;;5.10;68.70;;;;;;2368358;54;20969;-66
2021/01/27 06:15:44;;;;;;;5.07;2.50;;;5.10;68.40;;;;;;2565490;53;20958;-66
2021/01/27 06:18:28;;;;;;;5.50;2.87;;;5.00;68.80;;;;;;2352407;53;21543;-66
2021/01/27 06:21:14;;;;;;;5.07;2.70;;;5.00;68.60;;;;;;2576629;52;20958;-66
2021/01/27 06:24:04;;;;;;;7.15;2.40;;;5.00;68.90;;;;;;2353929;53;20938;-66
2021/01/27 06:28:19;;;;;;;5.53;2.40;;;5.00;68.90;;;;;;2620815;52;20958;-65
2021/01/27 06:30:54;;;;;;;5.78;2.50;;;5.00;68.80;;;;;;2621082;52;20969;-66
2021/01/27 06:36:18;;;;;;;3.85;1.92;;;5.00;69.00;;;;;;2576813;53;20970;-66
2021/01/27 06:42:22;;;;;;;5.65;2.00;;;5.00;68.90;;;;;;2621562;52;21939;-66
2021/01/27 06:45:50;;;;;;;4.25;2.03;;;5.10;68.50;;;;;;2305876;54;2663757;-66
2021/01/27 06:48:51;;;;;;;4.53;1.60;;;5.10;68.60;;;;;;2587883;52;21065;-66
2021/01/27 06:56:22;;;;;;;5.05;2.20;;;5.10;68.90;;;;;;2589754;52;21001;-66
2021/01/27 07:00:30;;;;;;;20.88;10.23;;;5.10;68.20;;;;;;2352468;54;20991;-66
2021/01/27 07:04:10;;;;;;;12.18;5.22;;;5.20;68.30;;;;;;2590306;52;20975;-66
2021/01/27 07:07:10;;;;;;;8.02;3.97;;;5.20;68.90;;;;;;2582369;52;21043;-66
2021/01/27 07:09:45;;;;;;;7.55;3.80;;;5.20;68.60;;;;;;2348392;53;20978;-66
2021/01/27 07:12:23;;;;;;;6.78;3.17;;;5.20;68.80;;;;;;2602837;52;20938;-66
2021/01/27 07:21:45;;;;;;;4.75;2.20;;;5.20;68.70;;;;;;2586715;53;20932;-66
2021/01/27 07:24:19;;;;;;;4.78;1.70;;;5.30;67.80;;;;;;2579812;52;20927;-66
2021/01/27 07:26:59;;;;;;;5.18;2.30;;;5.30;68.40;;;;;;2576908;53;21057;-66
2021/01/27 07:29:30;;;;;;;7.37;4.57;;;5.20;68.30;;;;;;2570282;52;21120;-66
2021/01/27 07:32:00;;;;;;;7.70;3.55;;;5.30;68.70;;;;;;2552280;53;20979;-66
2021/01/27 07:34:49;;;;;;;5.85;3.85;;;5.30;68.80;;;;;;2567624;53;21853;-66
2021/01/27 07:37:45;;;;;;;6.03;3.08;;;5.30;68.40;;;;;;2586382;53;20940;-66
2021/01/27 07:40:22;;;;;;;8.57;4.78;;;5.30;68.10;;;;;;2587332;53;21622;-66
2021/01/27 07:42:56;;;;;;;5.45;2.40;;;5.30;68.00;;;;;;2573922;53;21519;-66
2021/01/27 07:45:33;;;;;;;10.93;3.17;;;5.30;68.60;;;;;;2594787;52;20966;-66
2021/01/27 07:48:11;;;;;;;5.57;3.45;;;5.30;68.10;;;;;;2590886;52;21017;-65
2021/01/27 07:50:38;;;;;;;8.23;3.30;;;5.30;68.00;;;;;;2621009;52;21507;-66
2021/01/27 07:56:15;;;;;;;5.28;3.33;;;5.30;67.80;;;;;;2355665;54;21646;-65
2021/01/27 07:58:50;;;;;;;;;;;5.20;67.50;;;;;;2581227;52;21112;-65
2021/01/27 08:01:24;;;;;;;9.27;5.40;;;5.10;66.50;;;;;;2593681;52;20058;-65
2021/01/27 08:04:55;;;;;;;11.63;7.28;;;5.10;66.80;;;;;;2597291;52;22163;-65
2021/01/27 08:07:30;;;;;;;14.32;9.60;;;5.00;66.90;;;;;;2604940;52;20989;-65
2021/01/27 08:10:29;;;;;;;13.10;8.10;;;4.80;66.70;;;;;;2366899;54;20938;-66
2021/01/27 08:13:03;;;;;;;13.85;7.45;;;4.80;66.90;;;;;;2619951;52;20978;-65
2021/01/27 08:15:41;;;;;;;12.93;6.90;;;4.70;67.00;;;;;;2621562;52;20954;-65
2021/01/27 08:18:17;;;;;;;9.35;5.05;;;4.60;67.20;;;;;;2319871;54;20952;-66
2021/01/27 08:20:45;;;;;;;11.43;4.82;;;4.50;67.40;;;;;;2540060;53;20944;-65
2021/01/27 08:24:29;;;;;;;8.77;3.75;;;4.50;67.60;;;;;;2573139;53;21018;-65
2021/01/27 08:26:56;;;;;;;8.60;3.20;;;4.40;67.30;;;;;;2607231;52;20970;-66
2021/01/27 08:29:27;;;;;;;6.12;3.15;;;4.40;67.70;;;;;;2621650;52;20954;-66
2021/01/27 08:33:12;;;;;;;7.30;3.10;;;4.40;67.90;;;;;;2621926;52;20941;-65
2021/01/27 08:36:02;;;;;;;5.10;2.60;;;4.30;68.00;;;;;;2358518;53;20892;-65
2021/01/27 08:38:30;;;;;;;9.98;3.55;;;4.30;68.30;;;;;;2363762;54;20977;-65
2021/01/27 08:40:57;;;;;;;6.43;3.90;;;4.20;68.40;;;;;;2594973;52;21387;-65
2021/01/27 08:43:26;;;;;;;15.43;6.20;;;4.20;68.60;;;;;;2620691;52;21029;-66
2021/01/27 08:45:52;;;;;;;21.52;8.65;;;4.20;68.80;;;;;;2345825;54;21533;-65
2021/01/27 08:48:45;;;;;;;19.12;8.27;;;4.20;69.00;;;;;;2618868;52;21539;-66
2021/01/27 08:51:24;;;;;;;10.52;5.62;;;4.20;69.00;;;;;;2363600;53;21593;-66
2021/01/27 08:53:52;;;;;;;5.07;2.92;;;4.20;69.10;;;;;;2575367;52;21478;-65
2021/01/27 08:56:19;;;;;;;4.93;2.58;;;4.30;70.00;;;;;;2615381;52;21748;-66
2021/01/27 08:58:52;;;;;;;5.30;2.72;;;4.30;69.40;;;;;;2349669;54;21025;-66
2021/01/27 09:02:00;;;;;;;5.55;3.30;;;4.30;69.50;;;;;;2369585;54;21481;-66
2021/01/27 09:04:36;;;;;;;6.68;3.67;;;4.30;69.30;;;;;;2585451;53;21694;-66
2021/01/27 09:07:05;;;;;;;8.18;4.50;;;4.30;69.50;;;;;;2582537;53;21008;-66
2021/01/27 09:09:38;;;;;;;8.32;5.03;;;4.30;69.50;;;;;;2586531;53;21439;-66
2021/01/27 09:12:08;;;;;;;6.80;3.92;;;4.40;69.80;;;;;;2346846;54;21606;-66
2021/01/27 09:14:35;;;;;;;5.28;2.72;;;4.40;69.80;;;;;;2578163;52;20949;-66
2021/01/27 09:17:04;;;;;;;5.87;3.75;;;4.40;69.80;;;;;;2584556;52;20990;-66
2021/01/27 09:19:31;;;;;;;5.85;3.62;;;4.40;69.80;;;;;;2587248;52;20931;-66
2021/01/27 09:22:09;;;;;;;5.35;2.87;;;4.50;69.90;;;;;;2331889;53;21003;-66
2021/01/27 09:24:44;;;;;;;5.32;3.50;;;4.50;69.90;;;;;;2343365;54;21038;-66
2021/01/27 09:27:30;;;;;;;4.15;2.55;;;4.50;69.90;;;;;;2533246;53;21024;-66
2021/01/27 09:30:04;;;;;;;4.30;2.10;;;4.60;70.00;;;;;;2608757;52;20934;-66
2021/01/27 09:32:31;;;;;;;3.47;2.12;;;4.60;69.90;;;;;;2344466;54;21007;-66
2021/01/27 09:35:08;;;;;;;3.78;1.48;;;4.60;69.90;;;;;;2369548;54;20989;-67
2021/01/27 09:37:42;;;;;;;4.22;1.98;;;4.70;69.90;;;;;;2346223;54;20973;-67
2021/01/27 09:40:36;;;;;;;2.95;1.70;;;4.70;69.90;;;;;;2602359;52;20979;-67
2021/01/27 09:43:05;;;;;;;4.03;2.00;;;4.70;69.80;;;;;;2605875;52;20990;-67
2021/01/27 09:45:32;;;;;;;2.75;1.30;;;4.80;70.00;;;;;;2562661;52;21853;-67
2021/01/27 09:47:58;;;;;;;4.75;1.30;;;4.80;69.90;;;;;;2552802;52;21441;-67
2021/01/27 09:50:26;;;;;;;2.83;1.25;;;4.80;69.90;;;;;;2570244;52;21003;-68
2021/01/27 09:52:54;;;;;;;3.85;1.02;;;4.90;70.10;;;;;;2591004;52;20961;-68
2021/01/27 09:55:20;;;;;;;1.67;0.73;;;4.90;70.00;;;;;;2594212;52;20918;-67
2021/01/27 09:57:50;;;;;;;2.47;1.23;;;4.90;69.90;;;;;;2360900;54;20979;-67
2021/01/27 10:02:11;;;;;;;1.85;0.85;;;5.00;70.00;;;;;;2586880;52;20991;-67
2021/01/27 10:04:38;;;;;;;3.67;1.77;;;5.00;69.50;;;;;;2317734;54;21426;-67
2021/01/27 10:07:48;;;;;;;2.58;1.37;;;5.10;70.00;;;;;;2316632;53;21530;-67
2021/01/27 10:10:15;;;;;;;2.35;1.00;;;5.10;70.10;;;;;;2342784;54;21090;-69
2021/01/27 10:12:42;;;;;;;1.98;0.80;;;5.20;70.40;;;;;;2588121;52;20941;-69
2021/01/27 10:15:31;;;;;;;2.15;1.00;;;5.20;70.50;;;;;;2336097;53;20970;-69
2021/01/27 10:18:09;;;;;;;2.12;0.80;;;5.30;70.60;;;;;;2347333;53;20974;-69
2021/01/27 10:20:37;;;;;;;1.80;0.80;;;5.30;70.50;;;;;;2342209;54;20862;-69
2021/01/27 10:23:10;;;;;;;2.42;0.85;;;5.40;70.60;;;;;;2353555;53;21019;-69
2021/01/27 10:25:42;;;;;;;1.98;0.85;;;5.40;70.50;;;;;;2570419;52;20988;-69
2021/01/27 10:28:27;;;;;;;2.15;0.80;;;5.50;70.40;;;;;;2342499;53;21149;-69
2021/01/27 10:31:01;;;;;;;2.50;0.90;;;5.50;70.30;;;;;;2577783;53;20935;-69
2021/01/27 10:34:34;;;;;;;2.28;0.70;;;5.50;70.30;;;;;;2591115;52;21038;-69
2021/01/27 10:37:01;;;;;;;2.80;1.10;;;5.60;70.00;;;;;;2569382;53;21056;-68
2021/01/27 10:39:31;;;;;;;2.97;1.25;;;5.60;70.10;;;;;;2341483;53;20993;-69
2021/01/27 10:44:35;;;;;;;2.50;1.10;;;5.70;70.40;;;;;;2617919;52;20986;-69
2021/01/27 10:49:41;;;;;;;3.03;1.50;;;5.70;69.90;;;;;;2560783;53;20996;-69
2021/01/27 10:52:11;;;;;;;2.90;1.50;;;5.70;69.60;;;;;;2355561;54;20980;-68
2021/01/27 10:54:38;;;;;;;2.70;1.23;;;5.70;70.20;;;;;;2602653;52;21030;-68
2021/01/27 10:57:04;;;;;;;2.65;1.05;;;5.70;70.40;;;;;;2357291;53;21596;-68
2021/01/27 10:59:30;;;;;;;3.40;1.77;;;5.70;70.50;;;;;;2603006;52;20923;-68
2021/01/27 11:01:58;;;;;;;2.22;1.02;;;5.80;70.50;;;;;;2607083;52;20939;-68
2021/01/27 11:04:24;;;;;;;2.20;1.00;;;5.80;71.10;;;;;;2357719;54;21876;-68
2021/01/27 11:06:50;;;;;;;1.73;0.80;;;5.80;70.50;;;;;;2580754;53;21023;-68
2021/01/27 11:09:17;;;;;;;2.42;0.90;;;5.80;70.60;;;;;;2352109;53;21063;-68
2021/01/27 11:11:44;;;;;;;1.95;0.90;;;5.80;70.50;;;;;;2351670;53;20993;-69
2021/01/27 11:14:10;;;;;;;4.40;2.65;;;5.80;70.20;;;;;;2353700;53;20965;-68
2021/01/27 11:16:37;;;;;;;4.93;2.50;;;5.90;70.20;;;;;;2348968;53;20998;-68
2021/01/27 11:19:03;;;;;;;3.67;1.77;;;5.90;70.30;;;;;;2349359;54;20903;-69
2021/01/27 11:21:30;;;;;;;3.50;1.30;;;5.80;70.30;;;;;;2590101;52;20924;-68
2021/01/27 11:23:56;;;;;;;1.92;0.70;;;5.90;70.30;;;;;;2364338;54;21321;-69
2021/01/27 11:26:22;;;;;;;2.17;0.90;;;5.90;70.10;;;;;;2589176;52;21488;-68
2021/01/27 11:28:49;;;;;;;1.95;0.60;;;5.90;70.70;;;;;;2592395;52;21009;-68
2021/01/27 11:31:16;;;;;;;1.85;0.80;;;5.90;69.90;;;;;;2345662;53;20967;-68
2021/01/27 11:33:44;;;;;;;1.75;0.80;;;5.80;69.90;;;;;;2595907;52;20947;-69
2021/01/27 11:36:13;;;;;;;2.05;0.80;;;5.80;70.30;;;;;;2602624;52;21031;-68
2021/01/27 11:38:39;;;;;;;3.40;0.93;;;5.80;70.50;;;;;;2607680;52;21712;-68
2021/01/27 11:41:06;;;;;;;3.87;0.90;;;5.80;70.60;;;;;;2358137;54;20984;-68
2021/01/27 11:43:38;;;;;;;2.22;0.80;;;5.80;70.60;;;;;;2349638;53;21547;-68
2021/01/27 11:46:04;;;;;;;;;;;5.80;70.40;;;;;;2580024;53;20989;-68
2021/01/27 11:48:38;;;;;;;;;;;5.90;69.40;;;;;;2600188;52;20110;-68
2021/01/27 11:51:06;;;;;;;5.03;1.58;;;5.90;69.30;;;;;;2597053;52;20073;-68
2021/01/27 11:53:32;;;;;;;3.60;1.37;;;5.90;70.00;;;;;;2558377;53;20942;-68
2021/01/27 11:56:01;;;;;;;4.40;2.00;;;5.80;70.10;;;;;;2351873;53;20954;-68
2021/01/27 11:58:30;;;;;;;5.07;2.85;;;5.80;70.10;;;;;;2352125;53;20990;-68
2021/01/27 12:00:58;;;;;;;3.20;1.77;;;5.80;70.30;;;;;;2600372;52;20982;-67
2021/01/27 12:03:25;;;;;;;3.65;1.90;;;5.80;70.20;;;;;;2603634;52;21545;-67
2021/01/27 12:05:52;;;;;;;3.90;2.40;;;5.80;69.80;;;;;;2368382;54;21017;-67
2021/01/27 12:08:18;;;;;;;4.95;2.42;;;5.80;69.80;;;;;;2620096;52;20989;-67
2021/01/27 12:10:45;;;;;;;3.90;2.33;;;5.70;69.80;;;;;;2588781;52;20996;-67
2021/01/27 12:13:12;;;;;;;6.72;3.25;;;5.70;69.90;;;;;;2586013;52;22053;-67
2021/01/27 12:15:38;;;;;;;6.55;3.12;;;5.70;69.90;;;;;;2589227;52;20978;-67
2021/01/27 12:18:07;;;;;;;5.55;2.90;;;5.70;70.10;;;;;;2596064;52;20976;-67
2021/01/27 12:20:33;;;;;;;7.00;4.93;;;5.70;70.10;;;;;;2360988;53;21009;-67
2021/01/27 12:23:00;;;;;;;7.10;4.53;;;5.70;70.10;;;;;;2595458;52;20952;-67
2021/01/27 12:25:26;;;;;;;5.20;2.92;;;5.70;70.10;;;;;;2359656;54;20918;-67
2021/01/27 12:27:54;;;;;;;5.28;3.08;;;5.60;70.30;;;;;;2614656;52;21025;-67
2021/01/27 12:30:21;;;;;;;4.78;3.05;;;5.70;70.40;;;;;;2598249;52;20985;-67
2021/01/27 12:32:50;;;;;;;4.25;1.65;;;5.60;70.20;;;;;;2353136;54;20927;-67
2021/01/27 12:35:19;;;;;;;6.20;2.95;;;5.70;70.50;;;;;;2599145;52;20989;-67
2021/01/27 12:37:46;;;;;;;7.32;4.62;;;5.70;70.60;;;;;;2591012;52;20995;-67
2021/01/27 12:40:15;;;;;;;7.40;4.80;;;5.70;70.70;;;;;;2615142;52;20970;-67
2021/01/27 12:42:41;;;;;;;6.72;4.62;;;5.70;70.70;;;;;;2585576;52;21058;-67
2021/01/27 12:45:08;;;;;;;5.68;3.33;;;5.70;70.70;;;;;;2585416;52;20939;-67
2021/01/27 12:47:35;;;;;;;5.40;3.62;;;5.70;70.60;;;;;;2609692;52;20918;-67
2021/01/27 12:50:03;;;;;;;7.62;4.90;;;5.70;70.70;;;;;;2620978;52;21844;-67
2021/01/27 12:52:31;;;;;;;5.95;3.78;;;5.80;70.80;;;;;;2591259;52;20940;-67
2021/01/27 12:54:58;;;;;;;7.90;5.62;;;5.80;70.70;;;;;;2585181;52;20963;-68
2021/01/27 12:57:28;;;;;;;8.13;5.25;;;5.80;70.60;;;;;;2347646;53;20939;-67
2021/01/27 12:59:55;;;;;;;8.25;5.55;;;5.80;71.20;;;;;;2366451;53;20976;-67
2021/01/27 13:02:21;;;;;;;7.70;5.50;;;5.80;70.70;;;;;;2596857;52;20960;-67
2021/01/27 13:04:47;;;;;;;8.50;6.45;;;5.80;70.50;;;;;;2587222;52;21390;-67
2021/01/27 13:07:14;;;;;;;8.75;6.55;;;5.80;70.80;;;;;;2564148;52;21504;-68
2021/01/27 13:09:41;;;;;;;7.60;4.68;;;5.90;70.70;;;;;;2588722;52;21030;-67
2021/01/27 13:12:08;;;;;;;6.35;4.15;;;5.90;70.60;;;;;;2345490;53;20942;-67
2021/01/27 13:14:34;;;;;;;8.27;4.35;;;5.90;70.70;;;;;;2358662;54;20983;-67
2021/01/27 13:17:05;;;;;;;7.32;4.00;;;5.90;70.80;;;;;;2605155;52;20906;-67
2021/01/27 13:19:31;;;;;;;6.28;3.75;;;5.90;70.90;;;;;;2588238;52;20919;-68
2021/01/27 13:22:00;;;;;;;7.15;4.60;;;5.90;70.90;;;;;;2356200;53;21978;-67
2021/01/27 13:24:26;;;;;;;5.50;3.35;;;5.90;70.90;;;;;;2612891;52;20930;-68
2021/01/27 13:26:53;;;;;;;4.55;2.50;;;5.90;70.70;;;;;;2597964;52;21480;-67
2021/01/27 13:29:20;;;;;;;5.60;3.35;;;5.90;70.60;;;;;;2589090;52;20994;-67
2021/01/27 13:31:47;;;;;;;6.10;4.45;;;5.90;70.50;;;;;;2621344;52;20938;-68
2021/01/27 13:34:13;;;;;;;6.97;3.95;;;6.00;70.40;;;;;;2360775;53;20991;-67
2021/01/27 13:36:40;;;;;;;7.45;3.05;;;6.00;70.50;;;;;;2586136;52;21011;-67
2021/01/27 13:39:07;;;;;;;5.15;2.85;;;5.90;70.50;;;;;;2575870;52;20986;-68
2021/01/27 13:41:33;;;;;;;5.05;3.30;;;5.90;70.30;;;;;;2354039;54;21102;-68
2021/01/27 13:44:00;;;;;;;4.30;2.60;;;5.90;70.10;;;;;;2590161;52;21043;-68
2021/01/27 13:46:26;;;;;;;6.40;4.03;;;5.90;70.10;;;;;;2575673;52;21010;-67
2021/01/27 13:48:53;;;;;;;8.38;4.78;;;5.90;70.80;;;;;;2591729;52;21067;-68
2021/01/27 13:51:19;;;;;;;5.97;3.42;;;5.80;70.10;;;;;;2587555;52;21638;-67
2021/01/27 13:53:48;;;;;;;4.90;2.75;;;5.80;70.20;;;;;;2353668;53;20997;-67
2021/01/27 13:56:15;;;;;;;6.25;3.70;;;5.80;70.10;;;;;;2613948;52;21058;-67
2021/01/27 13:58:41;;;;;;;6.43;4.82;;;5.80;70.10;;;;;;2585595;52;21053;-67
2021/01/27 14:01:08;;;;;;;6.90;3.30;;;5.80;70.30;;;;;;2348190;54;20986;-68
2021/01/27 14:03:34;;;;;;;6.30;2.65;;;5.80;70.50;;;;;;2588365;52;21003;-67
2021/01/27 14:06:03;;;;;;;4.00;2.20;;;5.80;70.50;;;;;;2591333;52;21022;-68
2021/01/27 14:08:30;;;;;;;3.87;2.10;;;5.80;70.60;;;;;;2577371;52;21500;-68
2021/01/27 14:10:56;;;;;;;5.28;2.55;;;5.80;70.70;;;;;;2587358;52;21483;-67
2021/01/27 14:13:23;;;;;;;6.35;3.05;;;5.90;70.80;;;;;;2609672;52;20942;-68
2021/01/27 14:15:50;;;;;;;7.50;3.72;;;5.80;70.80;;;;;;2617266;52;20930;-67
2021/01/27 14:18:16;;;;;;;5.82;2.72;;;5.80;70.70;;;;;;2362689;54;21037;-67
2021/01/27 14:20:44;;;;;;;3.90;2.20;;;5.80;70.70;;;;;;2590360;52;21042;-67
2021/01/27 14:23:10;;;;;;;7.70;4.03;;;5.80;70.70;;;;;;2582977;52;20962;-67